createdAt,value
2022-08-24T00:01:28.072Z,7.72
2022-08-24T00:03:57.644Z,8.13
2022-08-24T00:06:28.081Z,8.20
2022-08-24T00:08:58.135Z,9.07
2022-08-24T00:11:26.580Z,8.43
2022-08-24T00:13:54.290Z,8.25
2022-08-24T00:16:22.234Z,9.35
2022-08-24T00:18:50.440Z,8.25
2022-08-24T00:21:19.055Z,8.23
2022-08-24T00:23:49.769Z,8.48
2022-08-24T00:26:28.489Z,10.35
2022-08-24T00:28:58.655Z,8.57
2022-08-24T00:31:26.445Z,8.70
2022-08-24T00:33:54.687Z,8.43
2022-08-24T00:36:23.122Z,12.57
2022-08-24T00:38:50.634Z,11.25
2022-08-24T00:41:18.219Z,9.75
2022-08-24T00:43:58.375Z,9.32
2022-08-24T00:46:33.026Z,10.38
2022-08-24T00:49:20.388Z,10.38
2022-08-24T00:52:04.571Z,9.93
2022-08-24T00:54:34.090Z,10.45
2022-08-24T00:57:04.957Z,12.18
2022-08-24T00:59:37.341Z,10.65
2022-08-24T01:02:15.429Z,12.48
2022-08-24T01:04:54.122Z,10.30
2022-08-24T01:07:23.731Z,10.70
2022-08-24T01:09:57.289Z,12.30
2022-08-24T01:12:25.372Z,10.88
2022-08-24T01:14:53.803Z,10.70
2022-08-24T01:17:40.902Z,11.82
2022-08-24T01:20:09.401Z,10.82
2022-08-24T01:22:53.491Z,10.73
2022-08-24T01:25:22.607Z,10.75
2022-08-24T01:27:50.645Z,11.70
2022-08-24T01:30:18.723Z,12.20
2022-08-24T01:32:59.657Z,11.27
2022-08-24T01:35:28.179Z,12.55
2022-08-24T01:37:57.539Z,13.80
2022-08-24T01:40:33.662Z,11.12
2022-08-24T01:43:02.511Z,13.07
2022-08-24T01:45:31.131Z,12.93
2022-08-24T01:47:59.726Z,11.60
2022-08-24T01:50:27.430Z,13.20
2022-08-24T01:53:04.904Z,12.65
2022-08-24T01:55:33.614Z,12.90
2022-08-24T01:58:01.460Z,12.13
2022-08-24T02:00:29.837Z,12.15
2022-08-24T02:02:57.646Z,13.45
2022-08-24T02:05:25.158Z,12.60
2022-08-24T02:07:53.166Z,12.85
2022-08-24T02:10:21.696Z,12.30
2022-08-24T02:12:57.853Z,13.10
2022-08-24T02:15:33.251Z,14.10
2022-08-24T02:18:04.537Z,13.07
2022-08-24T02:20:32.416Z,14.80
2022-08-24T02:23:00.198Z,13.18
2022-08-24T02:25:30.555Z,13.48
2022-08-24T02:27:59.874Z,14.20
2022-08-24T02:30:28.640Z,13.05
2022-08-24T02:32:56.617Z,15.60
2022-08-24T02:35:24.789Z,16.20
2022-08-24T02:37:52.539Z,16.30
2022-08-24T02:40:20.381Z,14.57
2022-08-24T02:42:49.014Z,17.33
2022-08-24T02:45:16.508Z,16.27
2022-08-24T02:47:45.163Z,16.55
2022-08-24T02:50:15.698Z,17.70
2022-08-24T02:52:44.491Z,16.37
2022-08-24T02:55:19.965Z,17.87
2022-08-24T02:57:48.375Z,17.23
2022-08-24T03:00:17.680Z,16.40
2022-08-24T03:02:46.276Z,16.83
2022-08-24T03:05:15.547Z,17.62
2022-08-24T03:07:43.526Z,18.62
2022-08-24T03:10:12.237Z,18.30
2022-08-24T03:12:40.023Z,19.58
2022-08-24T03:15:10.519Z,17.90
2022-08-24T03:17:39.968Z,19.62
2022-08-24T03:20:14.173Z,21.00
2022-08-24T03:22:42.661Z,17.95
2022-08-24T03:25:11.613Z,19.95
2022-08-24T03:27:39.533Z,20.62
2022-08-24T03:30:10.287Z,21.95
2022-08-24T03:32:41.160Z,20.37
2022-08-24T03:35:10.108Z,20.15
2022-08-24T03:37:37.640Z,20.62
2022-08-24T03:40:07.960Z,22.75
2022-08-24T03:42:50.463Z,17.15
2022-08-24T03:45:19.306Z,20.12
2022-08-24T03:47:46.744Z,17.40
2022-08-24T03:50:14.835Z,16.67
2022-08-24T03:52:42.516Z,16.83
2022-08-24T03:55:10.440Z,20.27
2022-08-24T03:57:38.112Z,21.02
2022-08-24T04:00:09.860Z,16.35
2022-08-24T04:02:42.176Z,16.12
2022-08-24T04:05:10.731Z,15.43
2022-08-24T04:07:38.755Z,16.55
2022-08-24T04:10:06.677Z,15.45
2022-08-24T04:12:34.616Z,16.50
2022-08-24T04:15:02.423Z,15.90
2022-08-24T04:17:30.922Z,15.48
2022-08-24T04:19:58.852Z,16.92
2022-08-24T04:22:28.716Z,17.33
2022-08-24T04:24:56.745Z,15.70
2022-08-24T04:27:24.482Z,14.18
2022-08-24T04:29:51.933Z,16.75
2022-08-24T04:32:20.082Z,16.17
2022-08-24T04:34:48.148Z,17.98
2022-08-24T04:37:17.626Z,20.20
2022-08-24T04:39:50.430Z,15.13
2022-08-24T04:42:20.083Z,18.92
2022-08-24T04:44:47.559Z,18.65
2022-08-24T04:47:15.569Z,15.52
2022-08-24T04:49:43.041Z,16.17
2022-08-24T04:52:10.559Z,15.05
2022-08-24T04:54:39.019Z,16.33
2022-08-24T04:57:06.704Z,16.45
2022-08-24T04:59:34.324Z,14.82
2022-08-24T05:02:02.246Z,16.23
2022-08-24T05:04:29.680Z,18.77
2022-08-24T05:06:58.882Z,14.85
2022-08-24T05:09:27.417Z,14.07
2022-08-24T05:11:55.670Z,13.80
2022-08-24T05:14:28.031Z,14.70
2022-08-24T05:16:56.478Z,13.90
2022-08-24T05:19:24.331Z,14.85
2022-08-24T05:21:51.804Z,14.57
2022-08-24T05:24:19.668Z,14.48
2022-08-24T05:26:47.169Z,12.60
2022-08-24T05:29:15.160Z,13.02
2022-08-24T05:31:44.729Z,14.27
2022-08-24T05:34:13.574Z,14.05
2022-08-24T05:36:42.502Z,13.35
2022-08-24T05:39:13.326Z,14.02
2022-08-24T05:41:44.245Z,15.52
2022-08-24T05:44:14.249Z,16.60
2022-08-24T05:46:43.175Z,14.70
2022-08-24T05:49:11.347Z,12.93
2022-08-24T05:51:40.145Z,12.60
2022-08-24T05:54:07.733Z,13.68
2022-08-24T05:56:35.615Z,13.18
2022-08-24T05:59:03.763Z,15.13
2022-08-24T06:01:31.717Z,12.00
2022-08-24T06:04:00.130Z,10.68
2022-08-24T06:06:28.668Z,11.95
2022-08-24T06:08:57.755Z,12.37
2022-08-24T06:11:30.761Z,11.40
2022-08-24T06:14:12.168Z,11.88
2022-08-24T06:16:42.934Z,8.90
2022-08-24T06:19:13.139Z,9.70
2022-08-24T06:21:41.128Z,11.27
2022-08-24T06:24:08.605Z,9.38
2022-08-24T06:26:55.301Z,9.82
2022-08-24T06:29:23.024Z,7.53
2022-08-24T06:31:54.696Z,8.35
2022-08-24T06:34:25.930Z,10.48
2022-08-24T06:36:53.727Z,9.40
2022-08-24T06:39:21.713Z,8.88
2022-08-24T06:41:50.268Z,12.40
2022-08-24T06:44:19.907Z,9.10
2022-08-24T06:46:47.803Z,9.65
2022-08-24T06:49:15.701Z,8.30
2022-08-24T06:51:46.348Z,7.43
2022-08-24T06:54:17.062Z,7.90
2022-08-24T06:56:44.479Z,9.02
2022-08-24T06:59:12.633Z,7.75
2022-08-24T07:01:40.383Z,7.40
2022-08-24T07:04:08.456Z,8.43
2022-08-24T07:06:37.287Z,7.95
2022-08-24T07:09:05.344Z,5.78
2022-08-24T07:11:35.003Z,6.47
2022-08-24T07:14:02.716Z,8.75
2022-08-24T07:16:31.208Z,11.10
2022-08-24T07:18:58.964Z,8.38
2022-08-24T07:21:28.251Z,6.70
2022-08-24T07:23:58.248Z,9.65
2022-08-24T07:26:28.103Z,9.27
2022-08-24T07:29:04.872Z,8.10
2022-08-24T07:31:35.520Z,7.62
2022-08-24T07:36:33.725Z,9.45
2022-08-24T07:39:02.436Z,7.37
2022-08-24T07:41:51.432Z,6.30
2022-08-24T07:44:19.148Z,5.57
2022-08-24T07:46:46.992Z,6.93
2022-08-24T07:49:33.294Z,6.35
2022-08-24T07:52:03.267Z,4.57
2022-08-24T07:54:30.803Z,6.07
2022-08-24T07:57:00.251Z,4.87
2022-08-24T07:59:28.423Z,5.30
2022-08-24T08:01:56.607Z,5.32
2022-08-24T08:04:25.981Z,3.80
2022-08-24T08:09:28.323Z,6.90
2022-08-24T08:11:55.863Z,5.43
2022-08-24T08:14:23.580Z,5.72
2022-08-24T08:16:51.375Z,6.47
2022-08-24T08:19:18.976Z,5.85
2022-08-24T08:22:07.397Z,6.12
2022-08-24T08:24:37.575Z,4.75
2022-08-24T08:27:05.969Z,6.68
2022-08-24T08:29:35.185Z,5.32
2022-08-24T08:32:03.169Z,6.75
2022-08-24T08:34:31.467Z,7.03
2022-08-24T08:36:59.835Z,6.82
2022-08-24T08:39:27.908Z,7.15
2022-08-24T08:42:21.305Z,4.47
2022-08-24T08:44:58.125Z,6.80
2022-08-24T08:47:49.689Z,5.35
2022-08-24T08:50:22.007Z,7.32
2022-08-24T08:52:55.803Z,8.48
2022-08-24T08:55:46.017Z,14.98
2022-08-24T08:58:53.793Z,7.55
2022-08-24T09:01:52.384Z,6.20
2022-08-24T09:04:43.866Z,8.18
2022-08-24T09:07:17.342Z,7.00
2022-08-24T09:09:52.265Z,6.87
2022-08-24T09:12:57.824Z,8.55
2022-08-24T09:15:47.189Z,6.95
2022-08-24T09:18:41.390Z,6.90
2022-08-24T09:21:31.134Z,6.85
2022-08-24T09:24:01.522Z,5.07
2022-08-24T09:26:33.051Z,4.57
2022-08-24T09:29:16.435Z,5.18
2022-08-24T09:32:16.343Z,7.45
2022-08-24T09:34:57.505Z,8.10
2022-08-24T09:37:31.832Z,9.55
2022-08-24T09:40:35.381Z,9.63
2022-08-24T09:43:32.772Z,4.90
2022-08-24T09:46:28.996Z,5.20
2022-08-24T09:49:02.386Z,7.87
2022-08-24T09:52:00.976Z,9.57
2022-08-24T09:54:59.244Z,7.22
2022-08-24T09:58:04.689Z,10.93
2022-08-24T10:00:41.936Z,4.72
2022-08-24T10:03:23.904Z,6.50
2022-08-24T10:06:15.977Z,9.75
2022-08-24T10:08:59.838Z,4.12
2022-08-24T10:11:50.508Z,12.50
2022-08-24T10:14:47.385Z,7.87
2022-08-24T10:17:42.959Z,6.15
2022-08-24T10:20:23.428Z,4.15
2022-08-24T10:23:28.452Z,5.70
2022-08-24T10:26:08.371Z,7.00
2022-08-24T10:28:44.832Z,6.30
2022-08-24T10:31:25.416Z,5.85
2022-08-24T10:33:55.577Z,6.62
2022-08-24T10:36:26.049Z,7.22
2022-08-24T10:39:43.804Z,8.20
2022-08-24T10:42:55.160Z,8.10
2022-08-24T10:45:48.140Z,7.07
2022-08-24T10:48:43.860Z,6.62
2022-08-24T10:51:23.072Z,7.15
2022-08-24T10:53:52.859Z,12.57
2022-08-24T10:56:36.565Z,8.75
2022-08-24T10:59:32.146Z,8.65
2022-08-24T11:02:12.421Z,9.35
2022-08-24T11:04:41.586Z,7.80
2022-08-24T11:07:17.724Z,9.73
2022-08-24T11:09:56.185Z,8.02
2022-08-24T11:12:30.352Z,12.93
2022-08-24T11:15:10.827Z,11.70
2022-08-24T11:17:38.376Z,10.68
2022-08-24T11:20:26.606Z,9.85
2022-08-24T11:23:05.193Z,9.93
2022-08-24T11:25:35.771Z,6.95
2022-08-24T11:28:09.544Z,9.23
2022-08-24T11:30:41.744Z,8.10
2022-08-24T11:33:27.455Z,12.23
2022-08-24T11:35:55.160Z,7.80
2022-08-24T11:38:30.591Z,9.57
2022-08-24T11:41:04.044Z,10.25
2022-08-24T11:43:53.303Z,11.35
2022-08-24T11:46:43.115Z,11.93
2022-08-24T11:49:34.433Z,13.35
2022-08-24T11:52:20.036Z,9.02
2022-08-24T11:55:07.835Z,9.65
2022-08-24T11:57:47.411Z,9.85
2022-08-24T12:00:18.724Z,11.57
2022-08-24T12:02:56.468Z,13.45
2022-08-24T12:05:42.550Z,13.05
2022-08-24T12:08:19.429Z,9.35
2022-08-24T12:10:46.656Z,8.48
2022-08-24T12:13:35.379Z,13.82
2022-08-24T12:16:26.003Z,6.78
2022-08-24T12:19:17.700Z,9.00
2022-08-24T12:21:48.532Z,7.37
2022-08-24T12:24:20.360Z,12.18
2022-08-24T12:26:51.227Z,12.98
2022-08-24T12:29:28.648Z,14.43
2022-08-24T12:32:12.195Z,12.43
2022-08-24T12:34:59.108Z,14.70
2022-08-24T12:37:52.072Z,15.48
2022-08-24T12:40:34.259Z,14.15
2022-08-24T12:43:08.546Z,13.82
2022-08-24T12:45:37.843Z,19.80
2022-08-24T12:48:26.623Z,11.95
2022-08-24T12:51:16.195Z,13.65
2022-08-24T12:54:12.238Z,9.60
2022-08-24T12:57:17.514Z,13.77
2022-08-24T12:59:51.869Z,12.57
2022-08-24T13:02:19.428Z,11.60
2022-08-24T13:04:49.725Z,13.35
2022-08-24T13:07:19.752Z,13.07
2022-08-24T13:09:56.211Z,15.52
2022-08-24T13:12:43.418Z,17.75
2022-08-24T13:15:23.325Z,14.98
2022-08-24T13:17:53.475Z,14.65
2022-08-24T13:20:21.252Z,14.55
2022-08-24T13:23:02.873Z,17.90
2022-08-24T13:28:21.425Z,17.85
2022-08-24T13:31:15.432Z,17.05
2022-08-24T13:33:57.495Z,14.23
2022-08-24T13:36:30.947Z,17.25
2022-08-24T13:39:35.846Z,15.38
2022-08-24T13:42:21.717Z,17.52
2022-08-24T13:45:01.191Z,15.70
2022-08-24T13:47:45.337Z,17.00
2022-08-24T13:50:28.823Z,18.80
2022-08-24T13:53:12.419Z,17.73
2022-08-24T13:55:47.888Z,18.30
2022-08-24T13:58:36.762Z,17.05
2022-08-24T14:01:33.940Z,17.67
2022-08-24T14:04:08.107Z,17.70
2022-08-24T14:06:58.863Z,21.12
2022-08-24T14:09:32.655Z,17.67
2022-08-24T14:12:20.331Z,17.40
2022-08-24T14:14:54.081Z,19.95
2022-08-24T14:18:03.743Z,18.27
2022-08-24T14:20:56.588Z,19.25
2022-08-24T14:23:39.528Z,19.35
2022-08-24T14:26:38.805Z,18.20
2022-08-24T14:29:15.334Z,17.52
2022-08-24T14:31:59.957Z,18.85
2022-08-24T14:34:41.961Z,18.90
2022-08-24T14:37:36.099Z,20.00
2022-08-24T14:40:37.222Z,20.50
2022-08-24T14:43:11.288Z,19.92
2022-08-24T14:45:46.225Z,20.55
2022-08-24T14:48:55.526Z,15.93
2022-08-24T14:51:54.760Z,21.52
2022-08-24T14:54:39.846Z,20.05
2022-08-24T14:57:10.083Z,19.12
2022-08-24T15:00:06.180Z,17.17
2022-08-24T15:02:51.555Z,18.50
2022-08-24T15:05:25.003Z,17.55
2022-08-24T15:07:55.569Z,18.87
2022-08-24T15:10:26.422Z,16.48
2022-08-24T15:13:03.538Z,16.62
2022-08-24T15:15:35.565Z,15.93
2022-08-24T15:18:18.104Z,18.73
2022-08-24T15:21:16.742Z,14.60
2022-08-24T15:23:53.072Z,16.30
2022-08-24T15:26:42.056Z,15.10
2022-08-24T15:29:15.178Z,13.32
2022-08-24T15:31:43.715Z,13.62
2022-08-24T15:34:11.393Z,13.57
2022-08-24T15:36:38.784Z,12.68
2022-08-24T15:39:06.694Z,13.07
2022-08-24T15:41:38.980Z,12.70
2022-08-24T15:44:23.452Z,11.85
2022-08-24T15:46:55.186Z,11.30
2022-08-24T15:49:34.775Z,15.50
2022-08-24T15:52:08.704Z,10.93
2022-08-24T15:54:46.290Z,11.50
2022-08-24T15:57:43.608Z,11.45
2022-08-24T16:00:44.455Z,11.75
2022-08-24T16:03:45.045Z,10.68
2022-08-24T16:06:31.443Z,10.63
2022-08-24T16:09:20.752Z,10.02
2022-08-24T16:11:56.741Z,9.15
2022-08-24T16:14:30.248Z,11.27
2022-08-24T16:16:58.386Z,11.07
2022-08-24T16:19:31.156Z,9.88
2022-08-24T16:22:07.960Z,13.60
2022-08-24T16:24:38.378Z,10.45
2022-08-24T16:27:10.683Z,8.68
2022-08-24T16:29:38.164Z,9.25
2022-08-24T16:32:22.078Z,13.05
2022-08-24T16:35:08.617Z,11.98
2022-08-24T16:37:36.198Z,9.95
2022-08-24T16:40:05.202Z,10.43
2022-08-24T16:42:32.911Z,12.60
2022-08-24T16:45:00.623Z,8.75
2022-08-24T16:47:29.043Z,11.02
2022-08-24T16:49:56.741Z,10.57
2022-08-24T16:52:24.367Z,14.93
2022-08-24T16:54:51.991Z,10.80
2022-08-24T16:57:24.446Z,10.73
2022-08-24T16:59:52.727Z,11.12
2022-08-24T17:02:22.247Z,11.85
2022-08-24T17:04:50.040Z,11.02
2022-08-24T17:07:23.998Z,11.18
2022-08-24T17:09:51.580Z,10.93
2022-08-24T17:12:19.208Z,11.07
2022-08-24T17:14:46.547Z,11.57
2022-08-24T17:17:17.125Z,10.10
2022-08-24T17:19:47.332Z,9.95
2022-08-24T17:22:16.535Z,11.95
2022-08-24T17:24:45.087Z,13.45
2022-08-24T17:27:13.067Z,10.77
2022-08-24T17:29:42.039Z,10.98
2022-08-24T17:32:09.438Z,10.73
2022-08-24T17:34:37.485Z,12.57
2022-08-24T17:37:05.171Z,10.43
2022-08-24T17:39:32.709Z,12.20
2022-08-24T17:42:00.473Z,10.15
2022-08-24T17:44:32.032Z,10.93
2022-08-24T17:47:03.653Z,13.15
2022-08-24T17:49:32.612Z,10.77
2022-08-24T17:52:00.485Z,11.38
2022-08-24T17:54:28.351Z,11.15
2022-08-24T17:56:56.176Z,14.10
2022-08-24T17:59:31.689Z,11.48
2022-08-24T18:02:01.816Z,11.90
2022-08-24T18:04:30.977Z,14.68
2022-08-24T18:07:03.015Z,11.82
2022-08-24T18:09:37.173Z,12.23
2022-08-24T18:12:06.818Z,12.02
2022-08-24T18:14:35.182Z,12.73
2022-08-24T18:17:05.490Z,13.52
2022-08-24T18:19:33.410Z,10.70
2022-08-24T18:22:01.942Z,9.10
2022-08-24T18:24:32.813Z,10.30
2022-08-24T18:27:10.131Z,12.73
2022-08-24T18:29:42.575Z,13.68
2022-08-24T18:32:11.761Z,14.45
2022-08-24T18:34:40.030Z,9.68
2022-08-24T18:37:07.694Z,10.85
2022-08-24T18:39:35.461Z,10.48
2022-08-24T18:42:05.342Z,12.15
2022-08-24T18:44:32.732Z,9.95
2022-08-24T18:47:00.072Z,13.07
2022-08-24T18:49:28.076Z,15.85
2022-08-24T18:51:55.692Z,9.18
2022-08-24T18:54:31.836Z,13.23
2022-08-24T18:56:59.497Z,10.15
2022-08-24T18:59:26.876Z,9.73
2022-08-24T19:02:12.956Z,12.00
2022-08-24T19:04:45.204Z,11.32
2022-08-24T19:07:13.517Z,16.08
2022-08-24T19:09:41.271Z,12.80
2022-08-24T19:12:08.956Z,12.73
2022-08-24T19:14:37.119Z,12.85
2022-08-24T19:17:06.440Z,9.30
2022-08-24T19:19:34.044Z,9.93
2022-08-24T19:22:02.503Z,12.10
2022-08-24T19:24:30.905Z,9.13
2022-08-24T19:27:01.923Z,11.35
2022-08-24T19:29:54.070Z,10.73
2022-08-24T19:32:24.070Z,9.77
2022-08-24T19:34:52.593Z,10.02
2022-08-24T19:37:21.352Z,11.80
2022-08-24T19:39:51.068Z,11.82
2022-08-24T19:42:19.516Z,13.85
2022-08-24T19:45:05.527Z,10.90
2022-08-24T19:47:34.537Z,13.02
2022-08-24T19:50:03.716Z,10.35
2022-08-24T19:52:32.161Z,11.93
2022-08-24T19:54:59.859Z,10.50
2022-08-24T19:57:36.908Z,11.60
2022-08-24T20:00:29.370Z,14.05
2022-08-24T20:02:57.463Z,10.88
2022-08-24T20:05:26.616Z,11.73
2022-08-24T20:07:54.286Z,12.63
2022-08-24T20:10:22.936Z,11.32
2022-08-24T20:12:50.716Z,13.75
2022-08-24T20:15:18.883Z,10.05
2022-08-24T20:17:47.016Z,10.10
2022-08-24T20:20:16.892Z,10.63
2022-08-24T20:22:44.382Z,10.20
2022-08-24T20:25:12.461Z,11.43
2022-08-24T20:27:39.825Z,10.38
2022-08-24T20:30:08.316Z,8.70
2022-08-24T20:32:36.054Z,9.57
2022-08-24T20:35:04.204Z,8.07
2022-08-24T20:37:32.652Z,16.27
2022-08-24T20:40:00.782Z,9.55
2022-08-24T20:42:29.402Z,10.93
2022-08-24T20:44:56.723Z,13.75
2022-08-24T20:47:24.319Z,14.38
2022-08-24T20:49:51.642Z,9.63
2022-08-24T20:52:19.118Z,7.55
2022-08-24T20:54:46.691Z,16.92
2022-08-24T20:57:18.157Z,12.20
2022-08-24T20:59:45.829Z,10.38
2022-08-24T21:02:13.730Z,15.35
2022-08-24T21:04:41.120Z,9.95
2022-08-24T21:07:10.511Z,16.92
2022-08-24T21:09:38.683Z,10.85
2022-08-24T21:12:06.875Z,11.52
2022-08-24T21:14:34.509Z,13.18
2022-08-24T21:17:04.633Z,16.02
2022-08-24T21:19:32.779Z,11.35
2022-08-24T21:22:00.211Z,13.38
2022-08-24T21:24:27.804Z,11.20
2022-08-24T21:26:55.260Z,12.80
2022-08-24T21:29:22.628Z,15.15
2022-08-24T21:32:08.683Z,12.57
2022-08-24T21:34:42.200Z,13.32
2022-08-24T21:37:12.903Z,10.75
2022-08-24T21:39:40.311Z,15.15
2022-08-24T21:42:09.405Z,13.18
2022-08-24T21:44:37.252Z,13.68
2022-08-24T21:47:06.778Z,12.18
2022-08-24T21:49:34.228Z,15.48
2022-08-24T21:52:01.892Z,11.25
2022-08-24T21:54:29.213Z,11.48
2022-08-24T21:56:56.536Z,9.50
2022-08-24T21:59:24.131Z,13.27
2022-08-24T22:01:51.527Z,13.02
2022-08-24T22:04:19.646Z,17.10
2022-08-24T22:06:46.999Z,9.60
2022-08-24T22:09:14.367Z,8.68
2022-08-24T22:11:42.817Z,9.50
2022-08-24T22:14:10.163Z,13.95
2022-08-24T22:16:37.752Z,10.75
2022-08-24T22:19:05.730Z,11.82
2022-08-24T22:21:34.797Z,12.18
2022-08-24T22:24:04.121Z,17.10
2022-08-24T22:26:32.141Z,12.75
2022-08-24T22:29:00.825Z,12.37
2022-08-24T22:31:33.934Z,13.13
2022-08-24T22:34:06.076Z,11.55
2022-08-24T22:36:33.899Z,10.02
2022-08-24T22:39:01.485Z,14.38
2022-08-24T22:41:29.335Z,11.02
2022-08-24T22:44:16.203Z,14.10
2022-08-24T22:46:44.134Z,9.40
2022-08-24T22:49:11.985Z,10.27
2022-08-24T22:51:40.235Z,10.70
2022-08-24T22:54:08.266Z,11.45
2022-08-24T22:56:39.139Z,13.48
2022-08-24T22:59:07.698Z,15.60
2022-08-24T23:01:38.417Z,12.60
2022-08-24T23:04:08.775Z,11.65
2022-08-24T23:06:36.499Z,11.80
2022-08-24T23:09:05.246Z,11.88
2022-08-24T23:11:33.104Z,9.07
2022-08-24T23:14:05.218Z,8.18
2022-08-24T23:16:34.623Z,18.40
2022-08-24T23:19:20.963Z,12.65
2022-08-24T23:21:48.776Z,11.27
2022-08-24T23:24:16.836Z,15.52
2022-08-24T23:26:44.507Z,9.68
2022-08-24T23:29:13.793Z,9.60
2022-08-24T23:31:42.075Z,10.40
2022-08-24T23:34:10.295Z,8.85
2022-08-24T23:36:38.338Z,9.93
2022-08-24T23:39:07.523Z,10.93
2022-08-24T23:41:38.251Z,12.48
2022-08-24T23:44:11.172Z,11.38
2022-08-24T23:46:39.654Z,10.43
2022-08-24T23:49:07.936Z,8.68
2022-08-24T23:51:36.386Z,10.90
2022-08-24T23:54:05.902Z,9.98
2022-08-24T23:56:36.764Z,9.40
2022-08-24T23:59:07.987Z,12.90
